Detall de PIREP

Printer-friendly versionPDF version

[2015/12/26 11:46:00]
Flight IATA:CT1004
Pilot Number:012
Company ICAO:CAT
Aircraft Type:C750/F
PAX:4
Departing Airport: LERS
Destination Airport: LPPR
Alternate Airport:LEST
Online: VATSIM
Route:CRETA UZ596 NEXAS UN975 TLD UZ405 BARDI RIVRO PESUL
Flight Level:F330
No Slew and time accel
No pause
Crash detect
Detect pilot in Cockpit between each 30 and 45 minutes
11:46 Zero fuel Weight: 22881 Lbs, Fuel Weight: 6294 Lbs
11:46 VATSIM:LERS 261130Z 23005KT 190V260 9999 FEW025 15/12 Q1033
11:46 VATSIM:LPPR 261130Z 13006KT 090V170 CAVOK 15/09 Q1028
11:46 X-MAS CHARTER
11:59 Parking Brakes off
12:06 Take-off
12:06 Take off Weight: 29061 Lbs
12:06 Wind: 225º @ 005 Knots Heading: 247º
12:06 POS N41º 08´ 49´´ E001º 09´ 57´´
12:06 Gear Up: 160 Knots
12:06 Flaps:3 at 160 Knots
12:07 Flaps:2 at 172 Knots
12:07 Flaps:0 at 183 Knots
12:15 TOC
12:15 Fuel Weight: 5746 Lb
12:21 Wind:306º@038 Knots Heading: 271º Ground Speed: 467 Knots Altitude 33582 ft
12:36 Wind:278º@016 Knots Heading: 254º Ground Speed: 483 Knots Altitude 33582 ft
12:51 Wind:240º@022 Knots Heading: 289º Ground Speed: 483 Knots Altitude 33526 ft
13:00 TOD
13:00 Fuel Weight: 4387 Lb
13:06 Wind:217º@038 Knots Heading: 313º Ground Speed: 412 Knots Altitude 20078 ft
13:11 Flaps:2 at 243 Knots
13:12 Flaps:3 at 225 Knots
13:13 Gear Down: 166 Knots
13:13 Flaps:4 at 152 Knots
13:13 Flaps:5 at 138 Knots
13:19 TouchDown:Rate -239 ft/min Speed: 115 Knots
13:19 Flaps:4 at 69 Knots
13:19 Flaps:0 at 64 Knots
13:19 VATSIM:LPPR 261300Z 17006KT CAVOK 17/09 Q1027
13:19 Land
13:19 Wind:143º@006 Knots
13:19 Heading: 163º
13:19 Flight Duration: 01:13
13:19 Landing Weight: 27014 Lbs
13:19 POS N41º 14´ 56´´ W008º 40´ 53´´
13:21 Parking brakes on
13:21 Block to Block Duration: 01:22
13:21 Final Fuel: 4111 Lbls
13:21 Spent Fuel: 2182 Lbls
13:21 Flight Length: 500 NM
13:21 TOD Land Length: 92 NM

Exportar CSV

Powered by Drupal - Modified by Danger4k